Latest Weather Observations for Melbourne Airport

IDV60901

Issued at 11:45 pm EST Friday 25 July 2014 (issued every 10 minutes, with the page automatically refreshed every 10 minutes)

About weather observations | Map of Melbourne area stations | Latest observations for Melbourne area | Other Formats
Station Details ID: 086282 Name: MELBOURNE AIRPORT Lat: -37.67 Lon: 144.83 Height: 113.4 m
Data from the previous 72 hours. | See also: Recent months at Melbourne Airport
Date/Time
EST
Tmp

°C
App
Tmp
°C
Dew
Point
°C
Rel
Hum
%
Delta-T

°C
Wind Press
QNH
hPa
Press
MSL
hPa
Rain
since
9 am
mm
Dir
 
Spd
km/h
Gust
km/h
Spd
kts
Gust
kts
25/11:30pm 10.9 6.8 7.8 81 1.5 N 19 22 10 12 1020.0 - 0.0
25/11:00pm 10.5 7.1 7.6 82 1.4 N 15 19 8 10 1020.0 1020.2 0.0
25/10:30pm 10.5 6.8 7.8 83 1.3 N 17 19 9 10 1019.7 - 0.0
25/10:00pm 11.5 7.4 8.0 79 1.7 N 19 22 10 12 1019.6 1019.8 0.0
25/09:30pm 11.6 7.4 8.1 79 1.7 N 20 24 11 13 1019.4 - 0.0
25/09:00pm 11.8 7.7 8.6 81 1.6 N 20 26 11 14 1018.9 1019.1 0.0
25/08:30pm 12.5 8.6 8.7 77 1.9 N 19 24 10 13 1018.9 - 0.0
25/08:00pm 12.4 8.4 8.4 76 2.0 N 19 24 10 13 1018.9 1019.1 0.0
25/07:30pm 12.1 8.5 8.5 78 1.8 N 17 22 9 12 1018.7 - 0.0
25/07:00pm 12.3 8.2 8.5 77 1.9 N 20 26 11 14 1018.4 1018.6 0.0
25/06:30pm 13.1 9.5 8.5 73 2.3 N 17 20 9 11 1017.9 - 0.0
25/06:00pm 13.1 8.6 8.5 73 2.3 N 22 30 12 16 1017.3 1017.5 0.0
25/05:30pm 13.5 9.8 8.1 70 2.7 N 17 22 9 12 1017.1 - 0.0
25/05:00pm 14.4 10.1 7.8 64 3.3 N 20 30 11 16 1016.9 1017.1 0.0
25/04:30pm 14.6 9.5 7.8 63 3.4 N 24 35 13 19 1016.6 - 0.0
25/04:00pm 14.5 9.8 7.7 63 3.4 NNW 22 33 12 18 1016.5 1016.7 0.0
25/03:30pm 15.6 9.9 8.3 62 3.7 N 28 37 15 20 1016.2 - 0.0
25/03:00pm 14.9 8.8 8.2 64 3.4 N 30 37 16 20 1016.0 1016.2 0.0
25/02:30pm 15.0 9.2 7.8 62 3.6 NNW 28 39 15 21 1015.8 - 0.0
25/02:00pm 15.3 8.8 8.2 62 3.6 N 32 43 17 23 1015.7 1015.9 0.0
25/01:30pm 15.0 8.5 8.0 63 3.5 N 32 41 17 22 1015.8 - 0.0
25/01:00pm 15.1 8.5 8.6 65 3.3 N 33 41 18 22 1015.8 1016.0 0.0
25/12:30pm 14.2 7.7 8.9 70 2.7 N 33 43 18 23 1015.9 - 0.0
25/12:00pm 14.1 7.2 8.8 70 2.7 N 35 41 19 22 1016.1 1016.3 0.0
25/11:30am 13.4 7.5 8.9 74 2.3 N 30 39 16 21 1016.5 - 0.0
25/11:00am 12.9 7.3 8.9 76 2.0 N 28 41 15 22 1016.7 1016.9 0.0
25/10:30am 13.1 7.1 8.7 74 2.2 N 30 39 16 21 1016.6 - 0.0
25/10:00am 12.9 8.1 8.7 75 2.1 N 24 30 13 16 1016.5 1016.7 0.0
25/09:30am 12.2 6.9 8.6 78 1.8 N 26 33 14 18 1016.2 - 0.0
25/09:00am 11.3 5.2 8.3 82 1.5 N 30 37 16 20 1015.9 1016.1 0.0
25/08:30am 11.0 5.2 8.1 82 1.4 N 28 33 15 18 1015.7 - 0.0
25/08:00am 10.7 5.4 8.3 85 1.2 N 26 33 14 18 1015.4 1015.6 0.0
25/07:30am 9.8 5.5 7.9 88 0.9 N 20 28 11 15 1015.0 - 0.0
25/07:00am 10.2 4.8 8.1 87 1.0 N 26 32 14 17 1014.8 1015.0 0.0
25/06:30am 10.1 5.2 8.3 88 0.9 N 24 33 13 18 1014.6 - 0.0
25/05:30am 10.4 4.3 8.4 87 1.0 N 30 39 16 21 1014.0 - 0.0
25/05:00am 10.3 3.6 8.3 87 1.0 N 33 41 18 22 1013.5 1013.7 0.0
25/04:30am 9.9 4.1 8.0 88 0.9 N 28 33 15 18 1013.5 - 0.0
25/04:00am 10.3 4.5 8.0 86 1.1 N 28 33 15 18 1013.6 1013.8 0.0
25/03:30am 10.0 4.9 7.7 86 1.1 N 24 30 13 16 1013.4 - 0.0
25/03:00am 9.7 4.6 7.6 87 1.0 N 24 33 13 18 1013.4 1013.6 0.0
25/02:48am 10.1 3.8 7.4 83 1.3 N 30 48 16 26 1013.4 - 0.0
25/02:30am 10.2 3.5 7.5 83 1.3 N 32 39 17 21 1013.2 - 0.0
25/02:00am 10.3 5.6 7.6 83 1.3 N 22 30 12 16 1013.1 1013.3 0.0
25/01:30am 10.4 3.7 7.5 82 1.4 N 32 46 17 25 1013.0 - 0.0
25/01:00am 10.8 4.8 7.0 77 1.8 N 28 37 15 20 1013.1 1013.3 0.0
25/12:30am 10.9 4.1 6.9 76 1.9 N 32 39 17 21 1013.1 - 0.0
25/12:00am 11.3 3.9 6.7 73 2.2 N 35 46 19 25 1013.1 1013.3 0.0
 
Date/Time
EST
Tmp

°C
App
Tmp
°C
Dew
Point
°C
Rel
Hum
%
Delta-T

°C
Wind Press
QNH
hPa
Press
MSL
hPa
Rain
since
9 am
mm
Dir
 
Spd
km/h
Gust
km/h
Spd
kts
Gust
kts
24/11:30pm 11.6 4.7 6.6 71 2.4 N 32 43 17 23 1013.3 - 0.0
24/11:10pm 11.8 5.7 6.6 70 2.5 N 28 54 15 29 1013.5 - 0.0
24/11:00pm 11.7 5.6 6.7 71 2.4 N 28 35 15 19 1013.5 1013.7 0.0
24/10:30pm 12.0 5.2 6.8 70 2.5 N 32 43 17 23 1013.3 - 0.0
24/10:22pm 11.8 5.8 7.0 72 2.3 N 28 41 15 22 1013.3 - 0.0
24/10:00pm 10.9 7.0 6.9 76 1.9 NNE 17 22 9 12 1013.2 1013.4 0.0
24/09:30pm 10.5 6.0 6.2 75 2.0 N 19 24 10 13 1013.4 - 0.0
24/09:00pm 7.5 5.1 5.3 86 1.0 SW 7 9 4 5 1013.5 1013.7 0.0
24/08:30pm 9.7 7.0 5.6 75 1.9 NNE 9 13 5 7 1013.3 - 0.0
24/08:00pm 10.1 7.6 6.5 78 1.7 NNE 9 13 5 7 1013.4 1013.6 0.0
24/07:30pm 10.8 6.7 6.1 73 2.2 NE 17 26 9 14 1013.3 - 0.0
24/07:00pm 11.3 7.2 6.0 70 2.5 NNE 17 30 9 16 1013.2 1013.4 0.0
24/06:30pm 11.3 6.8 6.0 70 2.5 NNE 19 26 10 14 1013.0 - 0.0
24/06:00pm 10.1 6.4 6.3 77 1.8 NNE 15 19 8 10 1012.9 1013.1 0.0
24/05:30pm 11.5 7.1 6.7 72 2.3 N 19 26 10 14 1012.7 - 0.0
24/05:00pm 13.3 8.6 6.2 62 3.4 NNE 20 28 11 15 1012.5 1012.7 0.0
24/04:30pm 13.2 8.7 6.8 65 3.1 NE 20 28 11 15 1012.6 - 0.0
24/04:00pm 12.9 7.2 6.7 66 3.0 NNE 26 37 14 20 1012.6 1012.8 0.0
24/03:30pm 12.7 6.6 6.7 67 2.9 NNE 28 35 15 19 1012.6 - 0.0
24/03:00pm 12.9 7.3 7.2 68 2.8 NNE 26 35 14 19 1013.0 1013.2 0.0
24/02:33pm 13.0 6.6 6.8 66 3.0 NNE 30 50 16 27 1013.0 - 0.0
24/02:30pm 13.1 7.1 6.9 66 3.0 NNE 28 35 15 19 1012.9 - 0.0
24/02:00pm 12.7 7.1 7.2 69 2.7 NE 26 35 14 19 1013.1 1013.3 0.0
24/01:30pm 13.5 7.6 7.4 66 3.0 NNE 28 35 15 19 1013.4 - 0.0
24/01:00pm 12.6 7.4 7.3 70 2.6 NE 24 37 13 20 1014.1 1014.3 0.0
24/12:30pm 12.5 8.3 7.6 72 2.4 NE 19 28 10 15 1014.5 - 0.0
24/12:00pm 12.1 7.9 7.6 74 2.2 NE 19 28 10 15 1014.9 1015.1 0.0
24/11:30am 11.8 5.9 7.3 74 2.2 NNE 28 41 15 22 1015.4 - 0.0
24/11:00am 11.6 5.7 7.3 75 2.1 N 28 39 15 21 1016.2 1016.4 0.0
24/10:30am 11.2 5.9 6.8 74 2.1 N 24 30 13 16 1016.6 - 0.0
24/10:00am 10.4 5.9 6.8 78 1.7 N 20 30 11 16 1016.7 1016.9 0.0
24/09:30am 10.0 7.6 6.8 80 1.5 NNW 9 13 5 7 1016.7 - 0.0
24/09:00am 9.2 6.7 6.4 83 1.3 N 9 15 5 8 1016.3 1016.5 0.0
24/08:30am 9.0 6.4 6.2 82 1.3 N 9 13 5 7 1016.2 - 0.0
24/08:00am 8.8 5.8 6.0 82 1.3 N 11 17 6 9 1016.1 1016.3 0.0
24/07:30am 8.0 4.6 5.8 86 1.0 NNE 13 19 7 10 1016.1 - 0.0
24/07:00am 7.6 4.2 5.8 88 0.8 NNE 13 17 7 9 1016.0 1016.2 0.0
24/06:30am 7.6 4.2 6.1 90 0.7 NE 13 17 7 9 1016.0 - 0.0
24/06:00am 7.2 3.8 5.9 91 0.6 NNE 13 15 7 8 1016.2 1016.4 0.0
24/05:30am 7.0 4.0 5.9 93 0.5 NE 11 15 6 8 1016.3 - 0.0
24/05:00am 7.8 4.4 6.0 88 0.8 NNE 13 17 7 9 1016.5 1016.7 0.0
24/04:30am 7.5 3.3 5.7 88 0.8 NNE 17 20 9 11 1016.5 - 0.0
24/04:00am 8.0 3.2 5.6 85 1.1 NE 20 26 11 14 1016.8 1017.0 0.0
24/03:30am 6.4 3.2 5.0 91 0.6 N 11 17 6 9 1016.9 - 0.0
24/03:00am 6.2 2.3 5.3 94 0.4 N 15 17 8 9 1016.8 1017.0 0.0
24/02:30am 5.7 1.3 4.8 94 0.4 N 17 17 9 9 1017.0 - 0.0
24/02:00am 5.4 0.6 4.7 95 0.3 N 19 28 10 15 1017.3 1017.5 0.0
24/01:30am 4.4 -0.2 3.9 97 0.2 NNE 17 19 9 10 1017.4 - 0.0
24/01:00am 5.2 0.8 4.5 95 0.3 NNE 17 19 9 10 1017.6 1017.8 0.0
24/12:30am 6.7 2.4 5.1 89 0.7 NNE 17 19 9 10 1017.9 - 0.0
24/12:00am 5.7 2.1 4.8 94 0.4 NNE 13 20 7 11 1018.4 1018.6 0.0
 
Date/Time
EST
Tmp

°C
App
Tmp
°C
Dew
Point
°C
Rel
Hum
%
Delta-T

°C
Wind Press
QNH
hPa
Press
MSL
hPa
Rain
since
9 am
mm
Dir
 
Spd
km/h
Gust
km/h
Spd
kts
Gust
kts
23/11:30pm 6.3 3.1 4.9 91 0.6 ENE 11 15 6 8 1018.9 - 0.0
23/11:00pm 6.3 3.8 4.7 89 0.7 NE 7 9 4 5 1019.1 1019.3 0.0
23/10:30pm 6.6 3.5 5.5 93 0.5 NE 11 13 6 7 1019.3 - 0.0
23/10:00pm 7.7 3.4 5.2 84 1.1 NE 17 22 9 12 1019.6 1019.8 0.0
23/09:30pm 7.4 3.1 5.1 85 1.0 NE 17 19 9 10 1019.6 - 0.0
23/09:00pm 7.3 3.7 5.0 85 1.0 NNE 13 17 7 9 1019.9 1020.1 0.0
23/08:30pm 6.6 3.6 4.3 85 1.0 NNE 9 15 5 8 1019.9 - 0.0
23/08:00pm 6.7 2.5 3.9 82 1.2 N 15 19 8 10 1019.9 1020.1 0.0
23/07:30pm 7.0 2.4 3.7 79 1.4 N 17 19 9 10 1019.8 - 0.0
23/07:00pm 7.5 2.5 3.5 76 1.7 N 19 26 10 14 1019.9 1020.1 0.0
23/06:30pm 7.6 3.5 4.4 80 1.4 N 15 32 8 17 1019.7 - 0.0
23/06:00pm 9.1 4.7 4.6 73 2.0 NNE 17 19 9 10 1019.5 1019.7 0.0
23/05:30pm 9.7 5.3 4.8 71 2.2 NNE 17 20 9 11 1019.6 - 0.0
23/05:00pm 10.6 5.8 4.9 68 2.6 N 19 24 10 13 1019.4 1019.6 0.0
23/04:30pm 11.0 6.6 4.8 65 2.8 N 17 22 9 12 1019.5 - 0.0
23/04:00pm 11.3 5.3 3.6 59 3.4 N 24 32 13 17 1019.4 1019.6 0.0
23/03:30pm 11.4 4.2 3.2 57 3.6 N 30 37 16 20 1019.5 - 0.0
23/03:00pm 11.6 4.9 3.5 57 3.6 N 28 35 15 19 1019.6 1019.8 0.0
23/02:30pm 11.8 5.2 4.0 59 3.5 N 28 44 15 24 1019.8 - 0.0
23/02:00pm 11.8 4.7 3.5 57 3.7 N 30 37 16 20 1020.2 1020.4 0.0
23/01:30pm 11.6 5.0 4.0 59 3.4 N 28 35 15 19 1020.5 - 0.0
23/01:00pm 11.4 4.8 4.0 60 3.3 N 28 35 15 19 1021.0 1021.2 0.0
23/12:30pm 11.9 5.7 4.1 59 3.5 N 26 33 14 18 1021.4 - 0.0
23/12:00pm 11.7 5.4 3.9 59 3.5 N 26 33 14 18 1022.1 1022.3 0.0
23/11:30am 11.8 6.8 4.8 62 3.2 N 20 28 11 15 1022.7 - 0.0
23/11:00am 11.5 6.1 4.7 63 3.1 N 22 30 12 16 1023.3 1023.5 0.0
23/10:30am 10.7 6.0 5.0 68 2.6 N 19 28 10 15 1023.5 - 0.0
23/10:00am 9.3 6.0 4.8 73 2.0 N 11 19 6 10 1023.7 1023.9 0.0
23/09:30am 5.7 3.0 3.6 86 0.9 NNE 7 17 4 9 1023.6 - 0.0
23/09:00am 3.3 0.6 2.5 94 0.3 NNE 6 9 3 5 1023.7 1023.9 0.0
23/08:30am 2.3 -0.6 1.3 93 0.4 NNE 6 7 3 4 1023.8 - 0.0
23/08:00am 0.7 -1.7 -0.1 94 0.3 NNE 2 7 1 4 1023.9 1024.1 0.0
23/07:30am 0.1 - - - - CALM 0 0 0 0 1024.0 - 0.0
23/07:15am 0.1 - - - - NE 2 7 1 4 1023.9 - 0.0
23/07:00am 0.1 - - - - CALM 0 - 0 - 1023.6 1023.8 0.0
23/06:55am -0.1 -2.1 -0.1 100 0.0 CALM 0 - 0 - 1023.6 - 0.0
23/06:45am -0.2 -2.2 -0.2 100 0.0 CALM 0 - 0 - 1023.7 - 0.0
23/06:30am -0.3 -2.3 -0.3 100 0.0 CALM 0 0 0 0 1023.6 - 0.0
23/06:00am 0.1 -3.2 0.1 100 0.0 N 7 9 4 5 1023.3 1023.5 0.0
23/05:30am 0.7 -2.9 0.7 100 0.0 N 9 11 5 6 1023.5 - 0.0
23/05:18am 0.9 -2.3 0.9 100 0.0 N 7 9 4 5 1023.4 - 0.0
23/05:09am 1.2 -1.9 1.2 100 0.0 N 7 9 4 5 1023.3 - 0.0
23/05:00am 1.6 -1.5 1.6 100 0.0 N 7 9 4 5 1023.3 1023.5 0.0
23/04:51am 1.9 -1.5 1.9 100 0.0 N 9 11 5 6 1023.4 - 0.0
23/04:30am 2.3 -1.0 2.3 100 0.0 N 9 11 5 6 1023.4 - 0.0
23/04:22am 2.5 -0.4 2.5 100 0.0 N 7 11 4 6 1023.5 - 0.0
23/04:17am 2.5 -0.4 2.5 100 0.0 N 7 9 4 5 1023.5 - 0.0
23/04:00am 2.5 -1.2 2.2 98 0.1 N 11 13 6 7 1023.5 1023.7 0.0
23/03:50am 3.0 0.2 3.0 100 0.0 N 7 9 4 5 1023.5 - 0.0
23/03:40am 3.7 0.2 3.7 100 0.0 N 11 13 6 7 1023.6 - 0.0
23/03:30am 4.1 0.3 4.1 100 0.0 N 13 13 7 7 1023.7 - 0.0
23/03:00am 4.7 1.0 4.7 100 0.0 N 13 17 7 9 1023.9 1024.1 0.0
23/02:30am 5.6 4.6 5.6 100 0.0 CALM 0 - 0 - 1024.1 - 0.0
23/02:00am 5.7 4.3 5.7 100 0.0 NNE 2 9 1 5 1024.0 1024.2 0.0
23/01:48am 5.9 3.6 5.7 99 0.1 N 7 11 4 6 1024.0 - 0.0
23/01:30am 5.9 3.6 5.7 99 0.1 N 7 9 4 5 1024.1 - 0.0
23/01:00am 5.8 2.7 5.6 99 0.1 N 11 11 6 6 1024.2 1024.4 0.0
23/12:30am 5.7 2.6 5.5 99 0.1 N 11 15 6 8 1024.5 - 0.0
23/12:00am 5.7 2.2 5.5 99 0.1 N 13 15 7 8 1024.6 1024.8 0.0

Latest Capital City Observations: Canberra | Sydney | Melbourne | Brisbane | Adelaide | Perth | Hobart | Darwin

Other Formats:

Comma delimited format used in spreadsheet applications
http://www.bom.gov.au/fwo/IDV60901/IDV60901.94866.axf

JavaScript Object Notation format (JSON) in row-major order
http://www.bom.gov.au/fwo/IDV60901/IDV60901.94866.json